createdAt,value
2019-01-03T00:00:38.045Z,15.00
2019-01-03T00:03:04.773Z,15.00
2019-01-03T00:05:31.423Z,15.01
2019-01-03T00:07:58.062Z,14.99
2019-01-03T00:10:24.726Z,15.00
2019-01-03T00:12:51.380Z,15.02
2019-01-03T00:15:18.072Z,14.97
2019-01-03T00:17:44.725Z,15.02
2019-01-03T00:20:11.451Z,15.02
2019-01-03T00:22:38.111Z,15.04
2019-01-03T00:25:04.807Z,15.02
2019-01-03T00:27:31.464Z,15.03
2019-01-03T00:29:58.166Z,15.07
2019-01-03T00:32:24.929Z,15.02
2019-01-03T00:34:51.587Z,15.10
2019-01-03T00:37:18.312Z,15.08
2019-01-03T00:39:44.983Z,15.10
2019-01-03T00:42:11.660Z,15.07
2019-01-03T00:44:38.329Z,15.10
2019-01-03T00:47:04.984Z,15.12
2019-01-03T00:49:31.695Z,15.12
2019-01-03T00:51:58.410Z,15.09
2019-01-03T00:54:25.052Z,15.11
2019-01-03T00:56:51.721Z,15.10
2019-01-03T00:59:18.425Z,15.16
2019-01-03T01:01:45.075Z,15.17
2019-01-03T01:04:11.731Z,15.17
2019-01-03T01:06:38.387Z,15.17
2019-01-03T01:09:05.059Z,15.20
2019-01-03T01:11:31.765Z,15.19
2019-01-03T01:13:58.434Z,15.22
2019-01-03T01:16:25.084Z,15.24
2019-01-03T01:18:51.744Z,15.26
2019-01-03T01:21:18.444Z,15.25
2019-01-03T01:23:45.093Z,15.26
2019-01-03T01:26:11.790Z,15.29
2019-01-03T01:28:38.458Z,15.29
2019-01-03T01:31:05.107Z,15.33
2019-01-03T01:33:31.871Z,15.35
2019-01-03T01:35:58.533Z,15.37
2019-01-03T01:38:25.233Z,15.35
2019-01-03T01:40:51.890Z,15.35
2019-01-03T01:43:18.548Z,15.37
2019-01-03T01:45:45.199Z,15.37
2019-01-03T01:48:11.913Z,15.42
2019-01-03T01:50:38.582Z,15.42
2019-01-03T01:53:05.293Z,15.47
2019-01-03T01:55:31.966Z,15.49
2019-01-03T01:57:58.824Z,15.51
2019-01-03T02:00:25.450Z,15.61
2019-01-03T02:02:52.369Z,15.69
2019-01-03T02:05:19.305Z,15.64
2019-01-03T02:07:46.189Z,15.64
2019-01-03T02:10:12.908Z,15.66
2019-01-03T02:12:39.657Z,15.68
2019-01-03T02:15:06.300Z,15.69
2019-01-03T02:17:32.965Z,15.68
2019-01-03T02:19:59.677Z,15.65
2019-01-03T02:22:26.370Z,15.69
2019-01-03T02:24:53.033Z,15.70
2019-01-03T02:27:19.690Z,15.70
2019-01-03T02:29:46.344Z,15.70
2019-01-03T02:32:13.070Z,15.76
2019-01-03T02:34:39.758Z,15.78
2019-01-03T02:37:06.427Z,15.80
2019-01-03T02:39:33.087Z,15.84
2019-01-03T02:41:59.756Z,15.83
2019-01-03T02:44:26.418Z,15.85
2019-01-03T02:46:53.133Z,15.90
2019-01-03T02:49:19.827Z,15.91
2019-01-03T02:51:46.457Z,15.88
2019-01-03T02:54:13.174Z,15.94
2019-01-03T02:56:39.903Z,15.94
2019-01-03T02:59:06.558Z,15.92
2019-01-03T03:01:33.236Z,15.95
2019-01-03T03:03:59.896Z,15.94
2019-01-03T03:06:26.560Z,15.96
2019-01-03T03:08:53.291Z,15.96
2019-01-03T03:11:19.968Z,15.93
2019-01-03T03:13:46.680Z,15.95
2019-01-03T03:16:13.335Z,15.97
2019-01-03T03:18:40.053Z,15.98
2019-01-03T03:21:06.775Z,15.95
2019-01-03T03:23:33.428Z,15.98
2019-01-03T03:26:00.105Z,15.98
2019-01-03T03:28:26.838Z,15.99
2019-01-03T03:30:53.584Z,16.03
2019-01-03T03:33:20.233Z,15.97
2019-01-03T03:35:46.893Z,16.00
2019-01-03T03:38:16.427Z,15.99
2019-01-03T03:40:43.151Z,16.02
2019-01-03T03:43:09.803Z,16.07
2019-01-03T03:45:36.467Z,16.10
2019-01-03T03:48:03.133Z,16.05
2019-01-03T03:50:29.787Z,16.04
2019-01-03T03:52:56.440Z,16.01
2019-01-03T03:55:23.149Z,15.96
2019-01-03T03:57:49.807Z,15.98
2019-01-03T04:00:16.452Z,15.94
2019-01-03T04:02:43.126Z,15.93
2019-01-03T04:05:09.833Z,15.92
2019-01-03T04:07:36.495Z,16.00
2019-01-03T04:10:03.166Z,15.86
2019-01-03T04:12:29.833Z,16.45
2019-01-03T04:14:56.493Z,16.47
2019-01-03T04:17:23.576Z,16.67
2019-01-03T04:19:50.239Z,17.05
2019-01-03T04:22:16.897Z,17.22
2019-01-03T04:24:43.617Z,17.72
2019-01-03T04:27:10.262Z,17.75
2019-01-03T04:29:36.919Z,17.48
2019-01-03T04:32:03.599Z,17.30
2019-01-03T04:34:30.263Z,17.03
2019-01-03T04:36:56.937Z,16.87
2019-01-03T04:39:23.641Z,16.48
2019-01-03T04:41:50.283Z,16.37
2019-01-03T04:44:16.931Z,16.29
2019-01-03T04:46:43.697Z,16.12
2019-01-03T04:49:10.328Z,16.04
2019-01-03T04:51:36.985Z,16.17
2019-01-03T04:54:03.671Z,16.18
2019-01-03T04:56:30.322Z,16.07
2019-01-03T04:58:57.012Z,16.11
2019-01-03T05:01:23.751Z,16.12
2019-01-03T05:03:50.394Z,16.12
2019-01-03T05:06:17.049Z,16.08
2019-01-03T05:08:43.705Z,16.02
2019-01-03T05:11:10.382Z,16.07
2019-01-03T05:13:37.042Z,16.09
2019-01-03T05:16:03.708Z,16.09
2019-01-03T05:18:31.975Z,16.16
2019-01-03T05:20:57.038Z,16.15
2019-01-03T05:23:23.798Z,16.05
2019-01-03T05:25:50.486Z,16.20
2019-01-03T05:28:17.203Z,16.33
2019-01-03T05:30:43.855Z,16.33
2019-01-03T05:33:10.490Z,16.22
2019-01-03T05:35:37.211Z,16.26
2019-01-03T05:38:03.876Z,16.26
2019-01-03T05:40:30.697Z,16.24
2019-01-03T05:42:57.396Z,16.32
2019-01-03T05:45:24.050Z,16.49
2019-01-03T05:47:50.792Z,16.60
2019-01-03T05:50:17.436Z,16.48
2019-01-03T05:52:44.168Z,16.52
2019-01-03T05:55:10.840Z,16.50
2019-01-03T05:57:37.510Z,16.59
2019-01-03T06:00:04.158Z,16.65
2019-01-03T06:02:30.824Z,16.72
2019-01-03T06:04:57.583Z,16.77
2019-01-03T06:07:24.253Z,16.80
2019-01-03T06:09:50.917Z,16.83
2019-01-03T06:12:17.622Z,16.77
2019-01-03T06:14:44.293Z,16.73
2019-01-03T06:17:10.959Z,16.70
2019-01-03T06:19:37.626Z,16.66
2019-01-03T06:22:04.456Z,16.86
2019-01-03T06:24:31.135Z,16.83
2019-01-03T06:26:57.874Z,16.78
2019-01-03T06:29:24.621Z,16.86
2019-01-03T06:31:51.263Z,16.81
2019-01-03T06:34:17.978Z,16.85
2019-01-03T06:36:44.637Z,16.86
2019-01-03T06:39:11.307Z,16.89
2019-01-03T06:41:37.968Z,16.82
2019-01-03T06:44:04.645Z,16.61
2019-01-03T06:46:31.424Z,16.81
2019-01-03T06:48:58.088Z,16.84
2019-01-03T06:51:24.787Z,16.82
2019-01-03T06:53:51.445Z,16.80
2019-01-03T06:56:18.108Z,17.10
2019-01-03T06:58:44.811Z,17.11
2019-01-03T07:01:11.572Z,17.21
2019-01-03T07:03:38.247Z,17.27
2019-01-03T07:06:04.927Z,17.26
2019-01-03T07:08:31.619Z,17.27
2019-01-03T07:10:58.288Z,17.27
2019-01-03T07:13:24.988Z,17.21
2019-01-03T07:15:51.791Z,17.25
2019-01-03T07:18:18.461Z,17.16
2019-01-03T07:20:48.858Z,17.17
2019-01-03T07:23:15.534Z,17.15
2019-01-03T07:25:42.202Z,17.14
2019-01-03T07:28:09.015Z,17.01
2019-01-03T07:30:35.687Z,17.04
2019-01-03T07:33:02.350Z,17.09
2019-01-03T07:35:29.052Z,17.08
2019-01-03T07:37:55.718Z,17.05
2019-01-03T07:40:22.386Z,17.00
2019-01-03T07:42:50.074Z,16.99
2019-01-03T07:45:16.771Z,16.93
2019-01-03T07:47:43.427Z,17.30
2019-01-03T07:50:10.090Z,17.42
2019-01-03T07:52:36.744Z,17.45
2019-01-03T07:55:03.483Z,17.37
2019-01-03T07:57:30.164Z,17.31
2019-01-03T07:59:56.867Z,17.21
2019-01-03T08:02:23.530Z,17.17
2019-01-03T08:04:50.209Z,17.07
2019-01-03T08:07:16.955Z,17.11
2019-01-03T08:09:43.638Z,17.08
2019-01-03T08:12:11.467Z,16.97
2019-01-03T08:14:38.184Z,17.10
2019-01-03T08:17:04.844Z,17.12
2019-01-03T08:19:31.647Z,16.93
2019-01-03T08:21:58.387Z,17.16
2019-01-03T08:24:25.054Z,17.17
2019-01-03T08:26:54.122Z,17.05
2019-01-03T08:29:20.795Z,17.00
2019-01-03T08:31:47.458Z,17.14
2019-01-03T08:34:14.242Z,17.20
2019-01-03T08:36:40.875Z,17.23
2019-01-03T08:39:07.540Z,17.25
2019-01-03T08:41:34.215Z,17.22
2019-01-03T08:44:00.929Z,17.24
2019-01-03T08:46:27.684Z,17.21
2019-01-03T08:49:00.357Z,17.24
2019-01-03T08:51:21.149Z,17.29
2019-01-03T08:53:47.863Z,17.25
2019-01-03T08:56:14.590Z,17.28
2019-01-03T08:58:41.248Z,17.21
2019-01-03T09:01:07.981Z,17.30
2019-01-03T09:03:35.022Z,17.31
2019-01-03T09:06:01.760Z,17.27
2019-01-03T09:08:28.419Z,17.40
2019-01-03T09:10:55.094Z,17.32
2019-01-03T09:13:21.774Z,17.38
2019-01-03T09:15:48.465Z,17.37
2019-01-03T09:18:15.168Z,17.32
2019-01-03T09:20:41.995Z,17.28
2019-01-03T09:23:08.695Z,17.30
2019-01-03T09:25:35.367Z,17.34
2019-01-03T09:28:02.026Z,17.40
2019-01-03T09:30:28.731Z,17.46
2019-01-03T09:32:55.484Z,17.43
2019-01-03T09:35:22.141Z,17.33
2019-01-03T09:37:48.798Z,17.49
2019-01-03T09:40:15.460Z,17.37
2019-01-03T09:42:42.139Z,17.57
2019-01-03T09:45:08.826Z,17.62
2019-01-03T09:47:35.522Z,17.68
2019-01-03T09:50:02.191Z,17.61
2019-01-03T09:52:28.900Z,17.62
2019-01-03T09:54:55.584Z,17.40
2019-01-03T09:57:22.241Z,17.63
2019-01-03T09:59:48.964Z,17.60
2019-01-03T10:02:15.641Z,17.64
2019-01-03T10:04:42.325Z,17.56
2019-01-03T10:07:08.996Z,17.58
2019-01-03T10:09:35.674Z,17.59
2019-01-03T10:12:02.328Z,17.63
2019-01-03T10:14:29.237Z,17.70
2019-01-03T10:16:55.880Z,17.52
2019-01-03T10:19:22.559Z,17.36
2019-01-03T10:21:49.217Z,17.52
2019-01-03T10:24:15.958Z,17.60
2019-01-03T10:26:42.626Z,17.45
2019-01-03T10:29:09.344Z,17.54
2019-01-03T10:31:38.360Z,17.55
2019-01-03T10:34:05.103Z,17.23
2019-01-03T10:36:31.759Z,17.50
2019-01-03T10:38:58.507Z,17.32
2019-01-03T10:41:25.164Z,17.50
2019-01-03T10:43:51.831Z,17.41
2019-01-03T10:46:18.496Z,17.53
2019-01-03T10:48:45.155Z,17.53
2019-01-03T10:51:11.864Z,17.45
2019-01-03T10:53:38.531Z,17.37
2019-01-03T10:56:05.183Z,17.26
2019-01-03T10:58:31.853Z,17.16
2019-01-03T11:00:58.618Z,17.20
2019-01-03T11:03:25.288Z,17.14
2019-01-03T11:05:51.949Z,17.26
2019-01-03T11:08:18.611Z,17.15
2019-01-03T11:10:45.282Z,17.07
2019-01-03T11:13:11.955Z,17.06
2019-01-03T11:15:38.604Z,17.03
2019-01-03T11:18:05.971Z,17.15
2019-01-03T11:20:32.635Z,17.03
2019-01-03T11:22:59.367Z,17.19
2019-01-03T11:25:26.072Z,17.00
2019-01-03T11:27:52.749Z,17.12
2019-01-03T11:30:19.524Z,17.21
2019-01-03T11:32:46.207Z,17.08
2019-01-03T11:35:12.972Z,16.98
2019-01-03T11:37:39.633Z,17.05
2019-01-03T11:40:06.310Z,17.12
2019-01-03T11:42:32.982Z,17.18
2019-01-03T11:44:59.722Z,17.21
2019-01-03T11:47:26.480Z,17.16
2019-01-03T11:49:53.097Z,17.19
2019-01-03T11:52:19.767Z,17.15
2019-01-03T11:54:46.445Z,17.28
2019-01-03T11:57:13.212Z,17.16
2019-01-03T11:59:39.900Z,17.25
2019-01-03T12:02:06.579Z,17.24
2019-01-03T12:04:33.320Z,17.29
2019-01-03T12:06:59.988Z,17.36
2019-01-03T12:09:26.689Z,17.37
2019-01-03T12:11:53.476Z,17.40
2019-01-03T12:14:20.578Z,17.39
2019-01-03T12:16:47.320Z,17.34
2019-01-03T12:19:14.225Z,17.34
2019-01-03T12:21:45.443Z,17.29
2019-01-03T12:24:10.976Z,17.26
2019-01-03T12:26:37.617Z,17.12
2019-01-03T12:29:05.727Z,17.14
2019-01-03T12:31:32.386Z,17.29
2019-01-03T12:33:59.242Z,17.23
2019-01-03T12:36:25.886Z,17.28
2019-01-03T12:38:52.545Z,17.16
2019-01-03T12:41:19.215Z,17.06
2019-01-03T12:43:45.871Z,17.12
2019-01-03T12:46:12.568Z,17.06
2019-01-03T12:48:45.361Z,17.04
2019-01-03T12:51:06.861Z,17.02
2019-01-03T12:53:33.505Z,17.07
2019-01-03T12:56:00.246Z,17.14
2019-01-03T12:58:26.967Z,17.12
2019-01-03T13:00:53.698Z,16.92
2019-01-03T13:03:20.356Z,17.06
2019-01-03T13:05:47.010Z,17.08
2019-01-03T13:08:13.680Z,17.05
2019-01-03T13:10:40.472Z,17.12
2019-01-03T13:13:07.202Z,17.16
2019-01-03T13:15:33.846Z,17.03
2019-01-03T13:18:00.512Z,17.16
2019-01-03T13:20:27.164Z,17.00
2019-01-03T13:22:54.988Z,17.04
2019-01-03T13:25:21.725Z,16.88
2019-01-03T13:27:48.387Z,16.94
2019-01-03T13:30:15.080Z,16.95
2019-01-03T13:32:41.765Z,16.87
2019-01-03T13:35:08.437Z,16.90
2019-01-03T13:37:35.095Z,16.92
2019-01-03T13:40:01.805Z,16.77
2019-01-03T13:42:28.513Z,16.76
2019-01-03T13:44:55.167Z,16.74
2019-01-03T13:47:21.951Z,16.62
2019-01-03T13:49:48.610Z,16.73
2019-01-03T13:52:15.255Z,16.61
2019-01-03T13:54:42.482Z,16.56
2019-01-03T13:57:09.222Z,16.75
2019-01-03T13:59:35.873Z,16.75
2019-01-03T14:02:02.598Z,16.61
2019-01-03T14:04:29.335Z,16.74
2019-01-03T14:06:58.851Z,16.65
2019-01-03T14:09:25.551Z,16.79
2019-01-03T14:11:52.191Z,16.64
2019-01-03T14:14:18.992Z,16.48
2019-01-03T14:16:45.634Z,16.48
2019-01-03T14:19:12.401Z,16.54
2019-01-03T14:21:39.196Z,16.62
2019-01-03T14:24:05.886Z,16.64
2019-01-03T14:26:32.627Z,16.54
2019-01-03T14:28:59.442Z,16.49
2019-01-03T14:31:26.048Z,16.46
2019-01-03T14:33:52.746Z,16.54
2019-01-03T14:36:19.394Z,16.53
2019-01-03T14:38:46.156Z,16.49
2019-01-03T14:41:12.874Z,16.45
2019-01-03T14:43:39.536Z,16.42
2019-01-03T14:46:06.198Z,16.39
2019-01-03T14:48:32.858Z,16.26
2019-01-03T14:50:59.509Z,16.28
2019-01-03T14:53:26.160Z,16.34
2019-01-03T14:55:52.793Z,16.33
2019-01-03T14:58:19.452Z,16.35
2019-01-03T15:00:46.148Z,16.15
2019-01-03T15:03:12.811Z,16.19
2019-01-03T15:05:39.499Z,16.29
2019-01-03T15:08:06.152Z,16.28
2019-01-03T15:10:32.804Z,16.23
2019-01-03T15:12:59.499Z,16.20
2019-01-03T15:15:26.148Z,16.13
2019-01-03T15:17:52.881Z,16.12
2019-01-03T15:20:19.558Z,16.13
2019-01-03T15:22:46.322Z,16.13
2019-01-03T15:25:12.988Z,15.99
2019-01-03T15:27:39.626Z,16.04
2019-01-03T15:30:06.347Z,16.00
2019-01-03T15:32:32.983Z,15.98
2019-01-03T15:34:59.634Z,15.95
2019-01-03T15:37:26.275Z,15.92
2019-01-03T15:39:53.115Z,15.91
2019-01-03T15:42:19.818Z,15.82
2019-01-03T15:44:46.472Z,15.88
2019-01-03T15:47:13.165Z,15.86
2019-01-03T15:49:39.867Z,15.89
2019-01-03T15:52:06.583Z,15.80
2019-01-03T15:54:33.282Z,15.85
2019-01-03T15:57:00.360Z,15.68
2019-01-03T15:59:27.066Z,15.60
2019-01-03T16:01:53.772Z,15.39
2019-01-03T16:04:20.490Z,15.42
2019-01-03T16:06:47.147Z,15.50
2019-01-03T16:09:13.788Z,15.54
2019-01-03T16:11:40.427Z,15.55
2019-01-03T16:14:07.132Z,15.54
2019-01-03T16:16:33.775Z,15.60
2019-01-03T16:19:00.423Z,15.47
2019-01-03T16:21:27.116Z,15.64
2019-01-03T16:23:53.788Z,15.87
2019-01-03T16:26:21.680Z,16.00
2019-01-03T16:28:47.204Z,15.85
2019-01-03T16:31:13.852Z,15.71
2019-01-03T16:33:40.489Z,15.65
2019-01-03T16:36:08.675Z,15.60
2019-01-03T16:38:33.826Z,15.49
2019-01-03T16:41:00.505Z,15.42
2019-01-03T16:43:27.182Z,15.35
2019-01-03T16:45:53.863Z,15.31
2019-01-03T16:48:20.740Z,15.25
2019-01-03T16:50:47.387Z,15.20
2019-01-03T16:53:14.020Z,15.27
2019-01-03T16:55:40.689Z,15.38
2019-01-03T16:58:07.337Z,15.36
2019-01-03T17:00:34.035Z,15.31
2019-01-03T17:03:00.664Z,15.33
2019-01-03T17:05:27.351Z,15.33
2019-01-03T17:07:53.995Z,15.33
2019-01-03T17:10:20.687Z,15.35
2019-01-03T17:12:47.328Z,15.33
2019-01-03T17:15:13.976Z,15.27
2019-01-03T17:17:40.631Z,15.24
2019-01-03T17:20:07.269Z,15.24
2019-01-03T17:22:33.996Z,15.27
2019-01-03T17:25:00.668Z,15.21
2019-01-03T17:27:27.327Z,15.16
2019-01-03T17:29:54.020Z,15.18
2019-01-03T17:32:20.708Z,15.16
2019-01-03T17:34:47.350Z,15.15
2019-01-03T17:37:13.995Z,15.15
2019-01-03T17:39:40.639Z,15.19
2019-01-03T17:42:07.284Z,15.20
2019-01-03T17:44:33.949Z,15.17
2019-01-03T17:47:00.602Z,15.20
2019-01-03T17:49:27.379Z,15.21
2019-01-03T17:51:54.026Z,15.23
2019-01-03T17:54:20.725Z,15.22
2019-01-03T17:56:47.478Z,15.25
2019-01-03T17:59:14.120Z,15.34
2019-01-03T18:01:40.763Z,15.35
2019-01-03T18:04:07.413Z,15.21
2019-01-03T18:06:34.081Z,15.25
2019-01-03T18:09:00.722Z,15.26
2019-01-03T18:11:27.368Z,15.18
2019-01-03T18:13:54.023Z,15.16
2019-01-03T18:16:20.680Z,15.13
2019-01-03T18:18:47.317Z,15.16
2019-01-03T18:21:13.965Z,15.16
2019-01-03T18:23:40.625Z,15.17
2019-01-03T18:26:07.275Z,15.18
2019-01-03T18:28:33.967Z,15.20
2019-01-03T18:31:00.666Z,15.17
2019-01-03T18:33:27.314Z,15.20
2019-01-03T18:35:53.958Z,15.17
2019-01-03T18:38:20.601Z,15.17
2019-01-03T18:40:47.260Z,15.23
2019-01-03T18:43:13.919Z,15.30
2019-01-03T18:45:40.617Z,15.33
2019-01-03T18:48:07.203Z,15.32
2019-01-03T18:50:34.224Z,15.29
2019-01-03T18:53:00.517Z,15.29
2019-01-03T18:55:27.185Z,15.25
2019-01-03T18:57:53.821Z,15.17
2019-01-03T19:00:20.470Z,15.19
2019-01-03T19:02:47.121Z,15.20
2019-01-03T19:05:13.776Z,15.22
2019-01-03T19:07:40.442Z,15.12
2019-01-03T19:10:07.080Z,15.10
2019-01-03T19:12:33.732Z,15.17
2019-01-03T19:15:00.386Z,15.18
2019-01-03T19:17:27.037Z,15.21
2019-01-03T19:19:53.687Z,15.27
2019-01-03T19:22:20.337Z,15.29
2019-01-03T19:24:47.004Z,15.32
2019-01-03T19:27:13.655Z,15.36
2019-01-03T19:29:40.313Z,15.39
2019-01-03T19:32:06.975Z,15.32
2019-01-03T19:34:33.624Z,15.29
2019-01-03T19:37:03.409Z,15.29
2019-01-03T19:39:30.050Z,15.29
2019-01-03T19:41:56.783Z,15.25
2019-01-03T19:44:23.423Z,15.22
2019-01-03T19:46:50.073Z,15.24
2019-01-03T19:49:16.713Z,15.23
2019-01-03T19:51:43.399Z,15.20
2019-01-03T19:54:10.035Z,15.16
2019-01-03T19:56:36.678Z,15.21
2019-01-03T19:59:03.325Z,15.19
2019-01-03T20:01:29.980Z,15.22
2019-01-03T20:03:56.621Z,15.22
2019-01-03T20:06:23.276Z,15.22
2019-01-03T20:08:49.918Z,15.26
2019-01-03T20:11:16.574Z,15.25
2019-01-03T20:13:43.233Z,15.28
2019-01-03T20:16:09.873Z,15.21
2019-01-03T20:18:36.522Z,15.22
2019-01-03T20:21:03.171Z,15.19
2019-01-03T20:23:29.821Z,15.14
2019-01-03T20:25:56.468Z,15.11
2019-01-03T20:28:23.111Z,15.05
2019-01-03T20:30:49.746Z,15.06
2019-01-03T20:33:16.392Z,15.03
2019-01-03T20:35:43.037Z,15.06
2019-01-03T20:38:09.719Z,15.05
2019-01-03T20:40:36.361Z,15.04
2019-01-03T20:43:03.009Z,15.06
2019-01-03T20:45:29.664Z,15.05
2019-01-03T20:47:57.600Z,15.05
2019-01-03T20:50:22.970Z,15.05
2019-01-03T20:52:49.616Z,15.04
2019-01-03T20:55:16.265Z,14.98
2019-01-03T20:57:42.919Z,15.02
2019-01-03T21:00:09.565Z,14.93
2019-01-03T21:02:36.202Z,14.97
2019-01-03T21:05:02.851Z,14.93
2019-01-03T21:07:29.506Z,14.91
2019-01-03T21:09:56.150Z,14.85
2019-01-03T21:12:22.811Z,14.83
2019-01-03T21:14:49.456Z,14.79
2019-01-03T21:17:16.156Z,14.74
2019-01-03T21:19:42.801Z,14.72
2019-01-03T21:22:09.534Z,14.67
2019-01-03T21:24:36.177Z,14.69
2019-01-03T21:27:02.833Z,14.65
2019-01-03T21:29:29.489Z,14.65
2019-01-03T21:31:56.188Z,14.64
2019-01-03T21:34:22.829Z,14.60
2019-01-03T21:36:49.472Z,14.59
2019-01-03T21:39:16.127Z,14.54
2019-01-03T21:41:42.788Z,14.54
2019-01-03T21:44:09.434Z,14.54
2019-01-03T21:46:36.078Z,14.54
2019-01-03T21:49:02.780Z,14.54
2019-01-03T21:51:32.496Z,14.45
2019-01-03T21:53:59.163Z,14.40
2019-01-03T21:56:25.841Z,14.37
2019-01-03T21:58:52.479Z,14.33
2019-01-03T22:01:19.121Z,14.29
2019-01-03T22:03:45.776Z,14.27
2019-01-03T22:06:12.438Z,14.24
2019-01-03T22:08:39.134Z,14.25
2019-01-03T22:11:05.821Z,14.22
2019-01-03T22:13:32.469Z,14.20
2019-01-03T22:15:59.122Z,14.14
2019-01-03T22:18:25.831Z,14.13
2019-01-03T22:20:52.482Z,14.15
2019-01-03T22:23:19.225Z,14.11
2019-01-03T22:25:45.871Z,14.08
2019-01-03T22:28:12.531Z,14.10
2019-01-03T22:30:39.176Z,14.08
2019-01-03T22:33:05.810Z,14.12
2019-01-03T22:35:32.461Z,14.03
2019-01-03T22:37:59.118Z,14.05
2019-01-03T22:40:25.754Z,14.01
2019-01-03T22:42:52.397Z,14.00
2019-01-03T22:45:19.111Z,13.97
2019-01-03T22:47:45.759Z,13.94
2019-01-03T22:50:12.402Z,13.91
2019-01-03T22:52:39.047Z,13.92
2019-01-03T22:55:05.686Z,13.90
2019-01-03T22:57:32.383Z,13.89
2019-01-03T22:59:59.038Z,13.95
2019-01-03T23:02:25.690Z,13.94
2019-01-03T23:04:52.330Z,13.93
2019-01-03T23:07:18.991Z,13.93
2019-01-03T23:09:45.679Z,13.90
2019-01-03T23:12:12.330Z,13.87
2019-01-03T23:14:39.065Z,13.96
2019-01-03T23:17:05.710Z,13.95
2019-01-03T23:19:32.351Z,13.92
2019-01-03T23:21:58.997Z,13.92
2019-01-03T23:24:25.659Z,13.90
2019-01-03T23:26:52.296Z,13.90
2019-01-03T23:29:19.001Z,13.84
2019-01-03T23:31:45.593Z,13.82
2019-01-03T23:34:12.292Z,13.77
2019-01-03T23:36:38.925Z,13.78
2019-01-03T23:39:05.567Z,13.77
2019-01-03T23:41:32.248Z,13.74
2019-01-03T23:43:58.885Z,13.72
2019-01-03T23:46:25.545Z,13.75
2019-01-03T23:48:52.198Z,13.73
2019-01-03T23:51:18.839Z,13.69
2019-01-03T23:53:45.496Z,13.69
2019-01-03T23:56:12.195Z,13.68
2019-01-03T23:58:38.840Z,13.68
